الصفحة الرئيسية
METAR-TAF:

METAR-TAF

مطار :

أيو جيما, اليابان

دائرة عرض: 24-47N, خط طول: 141-19E, ارتفاع: 113 متر

مراقبة الطقس الحالي

تاريخ ووقت الإصدار 50 دقيقة قبل الساعة 18:00UTC
ريح 6 عقدة من الشمال
درجة الحرارة 21°درجة مئوية
الرطوبة 73%
ضغط 1015 hPa
الرؤية 10 كم أو أكثر
غيوم متفرقة على ارتفاع 1500 قدم

METAR: RJAW 081800Z 35006KT 9999 SCT015 21/16 Q1015 RMK 3CU015 A3000

زمن: 03:50 (18:50 UTC)


TAF: مفقودة

أرصاد الطقس والتوقعات من أكثر من 4000 مطار (تقارير الطقس للمطار METAR والتنبؤ بالطقس بالمطارTAF).

المحطات المتاحة هي النقط الصفراء والحمراء على الخريطة.

حرك المؤشر فوق النقطة لمعرفة اسم المحطة.

ثم انقر لمعرفة أرصاد وتوقعات الطقس.

لتغيير الخارطة: اضغط على الأزرار الخضراء مع رمز الصليب الأسود للتكبير. على الزر الأخضر مع شرطة للتصغير، أو على الأسهم الخضراء للخرائط المجاورة.


METAR-TAF: